createdAt,value
2023-02-22T00:00:01.878Z,0
2023-02-22T00:05:01.809Z,0
2023-02-22T00:10:01.819Z,0
2023-02-22T00:15:01.911Z,0
2023-02-22T00:20:01.847Z,0
2023-02-22T00:25:01.841Z,0
2023-02-22T00:30:01.971Z,0
2023-02-22T00:35:01.774Z,0
2023-02-22T00:40:01.936Z,0
2023-02-22T00:45:02.065Z,0
2023-02-22T00:50:02.099Z,0
2023-02-22T00:55:02.017Z,0
2023-02-22T01:00:01.971Z,0
2023-02-22T01:05:02.036Z,0
2023-02-22T01:10:01.901Z,0
2023-02-22T01:15:01.902Z,0
2023-02-22T01:20:01.886Z,0
2023-02-22T01:25:01.880Z,0
2023-02-22T01:30:01.881Z,0
2023-02-22T01:35:01.887Z,0
2023-02-22T01:40:02.003Z,0
2023-02-22T01:45:01.849Z,0
2023-02-22T01:50:02.731Z,0
2023-02-22T01:55:01.893Z,0
2023-02-22T02:00:01.873Z,0
2023-02-22T02:05:02.064Z,0
2023-02-22T02:10:01.915Z,0
2023-02-22T02:15:01.953Z,0
2023-02-22T02:20:01.916Z,0
2023-02-22T02:25:01.968Z,0
2023-02-22T02:30:01.933Z,0
2023-02-22T02:35:01.985Z,0
2023-02-22T02:40:01.935Z,0
2023-02-22T02:45:02.022Z,0
2023-02-22T02:50:01.958Z,0
2023-02-22T02:55:01.945Z,0
2023-02-22T03:00:01.908Z,0
2023-02-22T03:05:01.994Z,0
2023-02-22T03:10:01.972Z,0
2023-02-22T03:15:01.967Z,0
2023-02-22T03:20:02.048Z,0
2023-02-22T03:25:01.912Z,0
2023-02-22T03:30:01.997Z,0
2023-02-22T03:35:02.022Z,0
2023-02-22T03:40:01.986Z,0
2023-02-22T03:45:02.005Z,0
2023-02-22T03:50:02.011Z,0
2023-02-22T03:55:02.013Z,0
2023-02-22T04:00:02.032Z,0
2023-02-22T04:05:02.120Z,0
2023-02-22T04:10:02.044Z,0
2023-02-22T04:15:01.970Z,0
2023-02-22T04:20:02.009Z,0
2023-02-22T04:25:01.945Z,0
2023-02-22T04:30:02.136Z,0
2023-02-22T04:35:02.064Z,0
2023-02-22T04:40:02.050Z,0
2023-02-22T04:45:02.030Z,0
2023-02-22T04:50:02.223Z,0
2023-02-22T04:55:02.060Z,0
2023-02-22T05:00:02.193Z,0
2023-02-22T05:05:02.277Z,0
2023-02-22T05:10:02.181Z,0
2023-02-22T05:15:02.185Z,0
2023-02-22T05:20:02.269Z,0
2023-02-22T05:25:02.236Z,0
2023-02-22T05:30:02.195Z,0
2023-02-22T05:35:02.291Z,0
2023-02-22T05:40:02.238Z,0
2023-02-22T05:45:02.189Z,0
2023-02-22T05:50:02.189Z,0
2023-02-22T05:55:02.249Z,0
2023-02-22T06:00:02.263Z,0
2023-02-22T06:05:02.236Z,0
2023-02-22T06:10:02.185Z,0
2023-02-22T06:15:02.225Z,0
2023-02-22T06:20:02.201Z,0
2023-02-22T06:25:02.309Z,0
2023-02-22T06:30:02.156Z,0.3671111111111111
2023-02-22T06:35:02.116Z,0.370952380952381
2023-02-22T06:40:05.396Z,0.5978624338624339
2023-02-22T06:45:02.201Z,1.0404973544973546
2023-02-22T06:50:02.158Z,1.252031746031746
2023-02-22T06:55:02.197Z,1.5806349206349206
2023-02-22T07:00:02.198Z,2.085756613756614
2023-02-22T07:05:02.286Z,3.7937354497354496
2023-02-22T07:10:02.212Z,8.034804232804232
2023-02-22T07:15:02.165Z,14.889312169312168
2023-02-22T07:20:02.196Z,16.17893121693122
2023-02-22T07:25:02.190Z,12.914560846560846
2023-02-22T07:30:02.138Z,9.391566137566137
2023-02-22T07:35:02.190Z,10.22578835978836
2023-02-22T07:40:02.122Z,9.033238095238094
2023-02-22T07:45:02.179Z,5.286973544973545
2023-02-22T07:50:02.234Z,5.199460317460317
2023-02-22T07:55:02.141Z,5.267513227513228
2023-02-22T08:00:02.208Z,5.5091746031746025
2023-02-22T08:05:02.361Z,5.168740740740741
2023-02-22T08:10:02.235Z,5.591703703703704
2023-02-22T08:15:02.217Z,5.708846560846561
2023-02-22T08:20:02.272Z,5.055777777777778
2023-02-22T08:25:02.183Z,5.566899470899471
2023-02-22T08:30:02.229Z,6.05152380952381
2023-02-22T08:35:02.202Z,6.287513227513227
2023-02-22T08:40:02.245Z,6.902243386243387
2023-02-22T08:45:02.301Z,7.882634920634921
2023-02-22T08:50:02.285Z,8.647312169312169
2023-02-22T08:55:02.252Z,9.900698412698413
2023-02-22T09:00:02.216Z,10.227333333333334
2023-02-22T09:05:02.404Z,10.035005291005291
2023-02-22T09:10:02.241Z,10.555089947089948
2023-02-22T09:15:02.322Z,11.774941798941798
2023-02-22T09:20:02.256Z,10.964751322751324
2023-02-22T09:25:07.871Z,12.427142857142858
2023-02-22T09:30:02.536Z,13.460550264550264
2023-02-22T09:35:02.487Z,13.5405291005291
2023-02-22T09:40:02.343Z,12.564603174603176
2023-02-22T09:45:02.365Z,14.947513227513227
2023-02-22T09:50:02.332Z,16.95809523809524
2023-02-22T09:55:02.405Z,17.849248677248678
2023-02-22T10:00:02.460Z,18.69989417989418
2023-02-22T10:05:02.635Z,14.679756613756615
2023-02-22T10:10:02.499Z,12.743809523809524
2023-02-22T10:15:02.436Z,13.844698412698413
2023-02-22T10:20:02.489Z,13.948391534391536
2023-02-22T10:25:02.431Z,10.918243386243386
2023-02-22T10:30:05.564Z,10.771322751322751
2023-02-22T10:35:02.725Z,8.83221164021164
2023-02-22T10:40:02.455Z,7.1986349206349205
2023-02-22T10:45:02.443Z,7.0303915343915335
2023-02-22T10:50:02.479Z,7.368560846560847
2023-02-22T10:55:14.401Z,7.763439153439153
2023-02-22T11:00:02.324Z,8.31283597883598
2023-02-22T11:05:02.580Z,9.126497354497355
2023-02-22T11:10:02.424Z,9.44900529100529
2023-02-22T11:15:02.321Z,9.851164021164022
2023-02-22T11:20:02.335Z,11.351343915343916
2023-02-22T11:25:02.483Z,17.920867724867723
2023-02-22T11:30:04.455Z,18.993111111111112
2023-02-22T11:35:08.909Z,22.563312169312173
2023-02-22T11:40:02.360Z,23.24707936507937
2023-02-22T11:45:02.392Z,21.73284656084656
2023-02-22T11:50:02.419Z,24.562243386243388
2023-02-22T11:55:02.419Z,26.277492063492065
2023-02-22T12:00:02.441Z,29.003957671957675
2023-02-22T12:05:02.680Z,26.559164021164023
2023-02-22T12:10:02.363Z,26.038042328042334
2023-02-22T12:15:02.428Z,26.812624338624342
2023-02-22T12:20:02.465Z,26.230719576719576
2023-02-22T12:25:09.305Z,22.591661375661378
2023-02-22T12:30:02.445Z,20.72821164021164
2023-02-22T12:35:02.536Z,22.162243386243386
2023-02-22T12:40:02.451Z,22.05720634920635
2023-02-22T12:45:02.850Z,21.582708994708995
2023-02-22T12:50:02.467Z,20.63352380952381
2023-02-22T12:55:02.392Z,21.298423280423282
2023-02-22T13:00:02.488Z,21.737047619047615
2023-02-22T13:45:35.396Z,17.6164126984127
2023-02-22T13:50:02.609Z,17.56684656084656
2023-02-22T13:55:02.644Z,17.919555555555558
2023-02-22T14:00:02.636Z,17.47152380952381
2023-02-22T14:05:02.646Z,17.53457142857143
2023-02-22T14:10:02.609Z,16.127386243386244
2023-02-22T14:15:29.909Z,12.155502645502644
2023-02-22T14:20:02.561Z,11.345089947089948
2023-02-22T14:25:02.663Z,11.939132275132277
2023-02-22T14:30:02.567Z,11.548857142857143
2023-02-22T14:35:02.544Z,9.98857142857143
2023-02-22T14:40:02.584Z,9.798603174603175
2023-02-22T14:45:29.507Z,11.510052910052911
2023-02-22T14:50:02.532Z,13.718211640211642
2023-02-22T14:55:02.553Z,11.723777777777777
2023-02-22T15:00:02.584Z,11.616063492063493
2023-02-22T15:05:02.641Z,9.13257142857143
2023-02-22T15:10:02.817Z,8.633058201058203
2023-02-22T15:15:34.990Z,7.915343915343915
2023-02-22T15:20:02.580Z,7.419248677248677
2023-02-22T15:25:02.563Z,7.141544973544973
2023-02-22T15:30:02.596Z,6.467470899470899
2023-02-22T15:35:02.599Z,5.560761904761905
2023-02-22T15:40:02.653Z,4.570116402116402
2023-02-22T15:45:29.162Z,3.6573756613756614
2023-02-22T15:50:04.647Z,2.8389523809523807
2023-02-22T15:55:02.600Z,2.0965396825396825
2023-02-22T16:00:02.648Z,1.4584973544973545
2023-02-22T16:05:02.651Z,0.9457566137566138
2023-02-22T16:10:02.666Z,0.48908994708994713
2023-02-22T16:15:33.862Z,0.17899470899470898
2023-02-22T16:20:02.695Z,0.2481904761904762
2023-02-22T16:25:02.807Z,0.16336507936507938
2023-02-22T16:30:05.902Z,0
2023-02-22T16:35:02.875Z,0
2023-02-22T16:40:02.841Z,0
2023-02-22T16:45:32.705Z,0
2023-02-22T16:50:03.427Z,0
2023-02-22T16:55:02.809Z,0
2023-02-22T17:00:02.906Z,0
2023-02-22T17:05:02.866Z,0
2023-02-22T17:10:02.820Z,0
2023-02-22T17:15:25.746Z,0
2023-02-22T17:20:02.690Z,0
2023-02-22T17:25:04.889Z,0
2023-02-22T17:30:02.599Z,0
2023-02-22T17:35:02.730Z,0
2023-02-22T17:40:02.877Z,0
2023-02-22T17:45:32.139Z,0
2023-02-22T17:50:02.696Z,0
2023-02-22T17:55:02.666Z,0
2023-02-22T18:00:02.770Z,0
2023-02-22T18:05:02.727Z,0
2023-02-22T18:10:02.719Z,0
2023-02-22T18:20:02.988Z,0
2023-02-22T18:25:02.935Z,0
2023-02-22T18:30:02.772Z,0
2023-02-22T18:35:02.738Z,0
2023-02-22T18:40:02.756Z,0
2023-02-22T18:45:02.737Z,0
2023-02-22T18:50:02.805Z,0
2023-02-22T18:55:02.796Z,0
2023-02-22T19:00:02.954Z,0
2023-02-22T19:05:06.562Z,0
2023-02-22T19:10:02.982Z,0
2023-02-22T19:15:02.946Z,0
2023-02-22T19:20:03.063Z,0
2023-02-22T19:25:03.082Z,0
2023-02-22T19:30:02.929Z,0
2023-02-22T19:35:02.914Z,0
2023-02-22T19:40:02.974Z,0
2023-02-22T19:45:02.909Z,0
2023-02-22T19:50:02.883Z,0
2023-02-22T19:55:02.928Z,0
2023-02-22T20:00:02.811Z,0
2023-02-22T20:05:02.843Z,0
2023-02-22T20:10:02.873Z,0
2023-02-22T20:15:02.816Z,0
2023-02-22T20:20:02.894Z,0
2023-02-22T20:25:02.948Z,0
2023-02-22T20:30:02.906Z,0
2023-02-22T20:35:02.837Z,0
2023-02-22T20:40:04.209Z,0
2023-02-22T20:45:02.849Z,0
2023-02-22T20:50:02.951Z,0
2023-02-22T20:55:02.845Z,0
2023-02-22T21:00:02.860Z,0
2023-02-22T21:05:02.860Z,0
2023-02-22T21:10:02.919Z,0
2023-02-22T21:15:02.915Z,0
2023-02-22T21:20:02.959Z,0
2023-02-22T21:25:03.015Z,0
2023-02-22T21:30:02.928Z,0
2023-02-22T21:35:02.914Z,0
2023-02-22T21:40:02.949Z,0
2023-02-22T21:45:02.942Z,0
2023-02-22T21:50:02.938Z,0
2023-02-22T21:55:02.906Z,0
2023-02-22T22:00:02.940Z,0
2023-02-22T22:05:03.003Z,0
2023-02-22T22:10:02.996Z,0
2023-02-22T22:15:03.096Z,0
2023-02-22T22:20:02.994Z,0
2023-02-22T22:25:02.955Z,0
2023-02-22T22:30:02.962Z,0
2023-02-22T22:35:02.942Z,0
2023-02-22T22:40:02.971Z,0
2023-02-22T22:45:02.944Z,0
2023-02-22T22:50:03.036Z,0
2023-02-22T22:55:03.057Z,0
2023-02-22T23:00:02.943Z,0
2023-02-22T23:05:02.992Z,0
2023-02-22T23:10:02.977Z,0
2023-02-22T23:15:02.990Z,0
2023-02-22T23:20:03.131Z,0
2023-02-22T23:25:03.001Z,0
2023-02-22T23:30:02.989Z,0
2023-02-22T23:35:03.018Z,0
2023-02-22T23:40:03.008Z,0
2023-02-22T23:45:03.185Z,0
2023-02-22T23:50:03.118Z,0
2023-02-22T23:55:03.177Z,0
